Time;durP1;ratioP1;P1;durP2;ratioP2;P2;SDS_P1;SDS_P2;PMS_P1;PMS_P2;Temp;Humidity;BMP_temperature;BMP_pressure;BME280_temperature;BME280_humidity;BME280_pressure;Samples;Min_cycle;Max_cycle;Signal;HPM_P1;HPM_P2
2023/03/08 00:02:11;;;;;;;1.80;1.40;;;;;;;5.61;74.00;98660.78;10441677;28;20306;-73
2023/03/08 00:07:13;;;;;;;1.83;1.25;;;;;;;5.63;74.07;98676.47;10454999;28;20534;-70
2023/03/08 00:12:18;;;;;;;1.15;1.05;;;;;;;5.61;73.98;98679.25;10457795;28;20058;-71
2023/03/08 00:17:19;;;;;;;2.60;1.30;;;;;;;5.54;74.04;98657.00;10454339;28;20087;-73
2023/03/08 00:22:21;;;;;;;1.30;1.20;;;;;;;5.62;74.16;98675.66;10477678;28;20078;-73
2023/03/08 00:27:22;;;;;;;1.42;1.30;;;;;;;5.63;72.23;98661.50;10496194;28;20135;-74
2023/03/08 00:32:25;;;;;;;1.80;1.33;;;;;;;5.62;72.77;98669.53;10477518;28;20063;-70
2023/03/08 00:37:27;;;;;;;1.48;1.20;;;;;;;5.56;72.51;98678.81;10462110;28;20079;-70
2023/03/08 00:42:28;;;;;;;1.45;1.25;;;;;;;5.44;73.03;98682.50;10455276;28;20079;-70
2023/03/08 00:47:29;;;;;;;1.33;1.10;;;;;;;5.48;72.79;98689.19;10453812;28;20068;-68
2023/03/08 00:52:31;;;;;;;1.45;1.35;;;;;;;5.54;73.11;98680.75;10450523;28;20048;-72
2023/03/08 00:57:32;;;;;;;1.40;1.13;;;;;;;5.48;72.85;98673.38;10446649;28;20059;-72
2023/03/08 01:02:34;;;;;;;1.35;1.25;;;;;;;5.53;71.59;98676.44;10474455;28;20135;-72
2023/03/08 01:07:35;;;;;;;2.05;1.85;;;;;;;5.59;72.08;98670.63;10448716;28;20130;-73
2023/03/08 01:12:37;;;;;;;1.77;1.52;;;;;;;5.54;72.25;98664.94;10449186;28;20427;-72
2023/03/08 01:17:38;;;;;;;1.92;1.60;;;;;;;5.65;71.80;98659.56;10425094;28;20052;-70
2023/03/08 01:22:40;;;;;;;2.50;1.83;;;;;;;5.66;71.39;98661.22;10448016;28;20110;-73
2023/03/08 01:27:41;;;;;;;1.90;1.70;;;;;;;5.61;71.74;98660.78;10444392;28;20367;-68
2023/03/08 01:32:42;;;;;;;1.67;1.58;;;;;;;5.62;71.54;98654.53;10444773;28;20640;-72
2023/03/08 01:37:44;;;;;;;2.25;2.05;;;;;;;5.61;70.82;98655.50;10444504;28;20044;-70
2023/03/08 01:42:46;;;;;;;2.08;1.88;;;;;;;5.63;70.89;98642.16;10431833;28;20410;-70
2023/03/08 01:47:47;;;;;;;1.70;1.58;;;;;;;5.60;70.59;98627.44;10441257;28;20101;-69
2023/03/08 01:52:52;;;;;;;2.40;2.08;;;;;;;5.57;70.06;98626.84;10442549;28;20048;-71
2023/03/08 01:57:54;;;;;;;2.33;2.13;;;;;;;5.55;69.96;98626.97;10459950;28;20044;-70
2023/03/08 02:03:02;;;;;;;2.30;2.10;;;;;;;5.59;70.77;98617.03;10438451;28;20064;-70
2023/03/08 02:08:04;;;;;;;2.60;2.40;;;;;;;5.68;70.37;98610.13;10425886;28;20187;-71
2023/03/08 02:13:08;;;;;;;3.33;2.78;;;;;;;5.75;69.80;98605.94;10430974;28;20075;-72
2023/03/08 02:18:09;;;;;;;2.15;1.95;;;;;;;5.74;70.86;98599.03;10440206;28;20190;-73
2023/03/08 02:23:12;;;;;;;2.17;1.90;;;;;;;5.81;70.64;98586.94;10401389;28;20149;-72
2023/03/08 02:28:14;;;;;;;2.70;2.42;;;;;;;5.73;71.28;98586.78;10433690;28;20645;-70
2023/03/08 02:33:16;;;;;;;3.30;2.83;;;;;;;5.65;71.52;98572.44;10452622;28;20049;-70
2023/03/08 02:38:19;;;;;;;3.67;3.10;;;;;;;5.70;71.75;98576.50;10453041;28;20066;-71
2023/03/08 02:43:21;;;;;;;5.30;3.63;;;;;;;5.63;71.73;98553.25;10450312;28;20151;-71
2023/03/08 02:48:22;;;;;;;3.50;3.20;;;;;;;5.56;72.88;98553.94;10447256;28;20056;-70
2023/03/08 02:53:24;;;;;;;4.22;3.65;;;;;;;5.56;72.15;98570.59;10447352;28;20169;-71
2023/03/08 02:58:25;;;;;;;3.92;3.47;;;;;;;5.58;72.36;98558.09;10445633;28;20175;-71
2023/03/08 03:03:27;;;;;;;6.85;3.50;;;;;;;5.52;73.27;98542.78;10435445;28;20143;-70
2023/03/08 03:08:30;;;;;;;4.13;3.58;;;;;;;5.53;74.11;98535.72;10444635;28;20685;-69
2023/03/08 03:13:31;;;;;;;5.30;3.45;;;;;;;5.50;74.49;98539.47;10444510;28;20062;-70
2023/03/08 03:18:32;;;;;;;4.63;4.03;;;;;;;5.46;73.99;98541.53;10444963;28;20044;-72
2023/03/08 03:23:34;;;;;;;6.97;4.03;;;;;;;5.52;74.28;98542.78;10452555;28;20721;-69
2023/03/08 03:28:36;;;;;;;3.83;3.40;;;;;;;5.50;74.22;98534.19;10450790;28;20096;-71
2023/03/08 03:33:38;;;;;;;4.45;3.65;;;;;;;5.43;74.11;98536.50;10464226;28;20087;-73
2023/03/08 03:38:39;;;;;;;4.25;3.85;;;;;;;5.45;73.85;98534.59;10474952;28;20056;-71
2023/03/08 03:43:41;;;;;;;4.55;4.13;;;;;;;5.47;73.99;98526.53;10489582;28;20143;-73
2023/03/08 03:48:43;;;;;;;5.35;4.32;;;;;;;5.51;73.69;98535.88;10465668;28;20787;-71
2023/03/08 03:53:45;;;;;;;6.13;4.85;;;;;;;5.57;73.99;98531.81;10441841;28;20138;-70
2023/03/08 03:58:47;;;;;;;5.95;4.53;;;;;;;5.53;74.55;98533.91;10447630;28;20557;-70
2023/03/08 04:03:49;;;;;;;5.70;4.20;;;;;;;5.54;74.05;98525.03;10445504;28;20062;-71
2023/03/08 04:08:54;;;;;;;5.00;4.50;;;;;;;5.43;73.05;98517.19;10448445;28;20051;-71
2023/03/08 04:13:56;;;;;;;5.63;4.22;;;;;;;5.53;73.52;98515.44;10424380;28;20661;-72
2023/03/08 04:19:00;;;;;;;6.68;5.80;;;;;;;5.38;71.58;98511.50;10452895;28;20059;-72
2023/03/08 04:24:01;;;;;;;6.68;5.45;;;;;;;5.35;71.06;98509.13;10444789;28;20052;-72
2023/03/08 04:29:05;;;;;;;6.10;5.15;;;;;;;5.40;72.76;98497.19;10443854;28;20182;-71
2023/03/08 04:34:06;;;;;;;7.80;6.45;;;;;;;5.48;72.52;98496.53;10442479;28;20109;-71
2023/03/08 04:39:07;;;;;;;7.38;6.38;;;;;;;5.37;71.05;98491.34;10443886;28;20051;-70
2023/03/08 04:44:09;;;;;;;7.00;6.20;;;;;;;5.32;72.72;98489.94;10443299;28;20054;-70
2023/03/08 04:49:10;;;;;;;8.63;6.60;;;;;;;5.37;72.84;98472.88;10441939;28;20060;-72
2023/03/08 04:54:12;;;;;;;8.48;7.25;;;;;;;5.38;72.19;98464.84;10439720;28;20056;-71
2023/03/08 04:59:13;;;;;;;9.70;8.15;;;;;;;5.43;71.76;98469.69;10471000;28;20124;-72
2023/03/08 05:04:14;;;;;;;8.38;7.18;;;;;;;5.48;71.57;98463.06;10446635;28;20611;-71
2023/03/08 05:09:16;;;;;;;9.52;7.60;;;;;;;5.47;72.70;98452.63;10427888;28;20511;-71
2023/03/08 05:14:18;;;;;;;8.57;7.38;;;;;;;5.52;71.18;98450.41;10433385;28;20048;-71
2023/03/08 05:19:19;;;;;;;9.77;8.38;;;;;;;5.49;71.33;98442.78;10448725;28;20801;-70
2023/03/08 05:24:21;;;;;;;9.52;7.82;;;;;;;5.49;70.98;98441.00;10441553;28;20242;-71
2023/03/08 05:29:22;;;;;;;9.32;7.82;;;;;;;5.49;70.89;98438.34;10442096;28;20136;-70
2023/03/08 05:34:23;;;;;;;10.18;8.40;;;;;;;5.39;70.59;98431.34;10424511;28;20174;-72
2023/03/08 05:39:25;;;;;;;10.15;8.75;;;;;;;5.40;70.44;98425.13;10441204;28;20495;-71
2023/03/08 05:44:26;;;;;;;9.73;8.73;;;;;;;5.24;69.13;98421.19;10445946;28;20056;-71
2023/03/08 05:49:29;;;;;;;11.30;10.10;;;;;;;5.09;69.53;98401.44;10443181;28;20466;-71
2023/03/08 05:54:30;;;;;;;11.18;9.93;;;;;;;5.06;70.26;98406.97;10441152;28;20555;-73
2023/03/08 05:59:32;;;;;;;12.98;10.68;;;;;;;4.63;72.46;98402.78;10433253;28;20103;-72
2023/03/08 06:04:33;;;;;;;10.73;9.60;;;;;;;4.73;73.40;98401.03;10446005;28;20117;-72
2023/03/08 06:09:35;;;;;;;12.90;9.35;;;;;;;4.73;73.01;98399.22;10449325;28;20508;-73
2023/03/08 06:14:36;;;;;;;13.35;11.55;;;;;;;4.73;73.86;98409.75;10446726;28;20497;-71
2023/03/08 06:19:37;;;;;;;12.98;10.50;;;;;;;4.56;74.00;98428.78;10431161;28;20052;-72
2023/03/08 06:24:39;;;;;;;13.52;10.57;;;;;;;4.64;75.38;98407.91;10449532;28;20131;-71
2023/03/08 06:29:40;;;;;;;12.50;9.73;;;;;;;4.75;75.35;98404.34;10444436;28;20140;-71
2023/03/08 06:34:42;;;;;;;15.40;11.13;;;;;;;4.67;74.56;98412.91;10442695;28;20154;-69
2023/03/08 06:39:43;;;;;;;13.68;11.10;;;;;;;4.70;75.40;98414.44;10445582;28;20064;-71
2023/03/08 06:44:45;;;;;;;13.60;10.48;;;;;;;4.64;75.85;98399.16;10447232;28;20257;-71
2023/03/08 06:49:46;;;;;;;12.90;11.00;;;;;;;4.62;75.60;98395.81;10484839;28;20317;-73
2023/03/08 06:54:47;;;;;;;11.85;10.57;;;;;;;4.58;75.38;98384.72;10490916;28;20052;-73
2023/03/08 06:59:49;;;;;;;12.50;8.85;;;;;;;4.59;75.74;98374.06;10470699;28;20171;-71
2023/03/08 07:04:50;;;;;;;11.68;9.35;;;;;;;4.57;76.44;98368.06;10492429;28;20201;-71
2023/03/08 07:09:51;;;;;;;12.27;10.15;;;;;;;4.51;75.93;98376.50;10489722;28;20048;-71
2023/03/08 07:14:53;;;;;;;13.73;10.70;;;;;;;4.35;77.19;98370.84;10496372;28;20046;-72
2023/03/08 07:19:54;;;;;;;12.30;9.93;;;;;;;4.37;77.71;98361.03;10487552;28;20858;-73
2023/03/08 07:24:56;;;;;;;12.68;9.85;;;;;;;4.37;78.00;98339.97;10438811;28;20063;-72
2023/03/08 07:29:57;;;;;;;12.60;10.25;;;;;;;4.50;77.56;98351.09;10450577;28;20066;-72
2023/03/08 07:34:59;;;;;;;14.63;10.88;;;;;;;4.31;79.02;98335.19;10449675;28;20059;-71
2023/03/08 07:40:00;;;;;;;13.10;11.23;;;;;;;4.15;79.00;98320.72;10440661;28;20695;-73
2023/03/08 07:45:02;;;;;;;13.07;10.82;;;;;;;4.10;80.10;98304.47;10447782;28;20041;-69
2023/03/08 07:50:04;;;;;;;15.05;10.40;;;;;;;4.05;79.94;98299.59;10446248;28;20037;-67
2023/03/08 07:55:06;;;;;;;13.20;10.45;;;;;;;4.13;80.37;98282.28;10433532;28;20165;-68
2023/03/08 08:00:08;;;;;;;11.82;9.73;;;;;;;4.15;80.14;98267.22;10443809;28;20056;-68
2023/03/08 08:05:10;;;;;;;12.90;10.75;;;;;;;4.10;80.67;98259.72;10445331;28;20799;-68
2023/03/08 08:10:11;;;;;;;11.93;9.98;;;;;;;4.18;80.04;98261.69;10433125;28;20219;-68
2023/03/08 08:15:13;;;;;;;15.32;11.20;;;;;;;4.21;79.70;98256.97;10452337;28;20056;-68
2023/03/08 08:20:15;;;;;;;15.43;10.90;;;;;;;4.05;80.28;98251.34;10420726;28;20063;-66
2023/03/08 08:25:16;;;;;;;11.90;10.70;;;;;;;4.12;80.59;98217.44;10440140;28;20045;-68
2023/03/08 08:30:18;;;;;;;13.65;11.23;;;;;;;4.09;80.14;98210.63;10431457;28;20067;-67
2023/03/08 08:35:19;;;;;;;14.13;11.13;;;;;;;4.04;80.84;98199.69;10447787;28;20140;-69
2023/03/08 08:40:21;;;;;;;14.20;11.15;;;;;;;4.04;80.57;98204.94;10444407;28;20526;-68
2023/03/08 08:45:22;;;;;;;13.65;11.50;;;;;;;4.03;79.90;98195.38;10443483;28;20056;-70
2023/03/08 08:50:24;;;;;;;14.32;11.10;;;;;;;4.01;79.93;98197.31;10448767;28;20212;-67
2023/03/08 08:55:25;;;;;;;13.02;11.02;;;;;;;4.01;80.05;98181.53;10470145;28;20052;-70
2023/03/08 09:00:26;;;;;;;15.02;12.18;;;;;;;3.98;79.75;98176.50;10473288;28;20052;-71
2023/03/08 09:05:28;;;;;;;13.70;10.93;;;;;;;4.02;79.49;98159.47;10445875;28;20059;-68
2023/03/08 09:10:32;;;;;;;11.90;10.43;;;;;;;4.07;79.35;98146.75;10450779;28;20116;-69
2023/03/08 09:15:35;;;;;;;12.95;10.20;;;;;;;4.11;78.62;98140.22;10461860;28;21866;-71
2023/03/08 09:20:37;;;;;;;12.18;10.30;;;;;;;4.15;78.61;98125.84;10465953;28;20145;-71
2023/03/08 09:25:38;;;;;;;11.60;9.63;;;;;;;4.06;78.51;98116.94;10499755;28;20044;-73
2023/03/08 09:30:40;;;;;;;10.90;9.70;;;;;;;4.06;78.80;98137.19;10466598;28;20134;-70
2023/03/08 09:35:41;;;;;;;13.88;11.52;;;;;;;3.99;79.59;98121.06;10436354;28;20044;-69
2023/03/08 09:40:53;;;;;;;13.00;10.25;;;;;;;4.09;78.98;98117.66;10483793;28;20049;-72
2023/03/08 09:45:55;;;;;;;11.88;10.40;;;;;;;3.94;79.42;98122.47;10437217;28;20056;-71
2023/03/08 09:51:04;;;;;;;11.93;9.63;;;;;;;4.01;79.23;98110.44;10454500;28;20129;-72
2023/03/08 09:56:35;;;;;;;11.75;9.73;;;;;;;3.99;80.00;98109.72;10487538;28;20372;-72
2023/03/08 10:02:03;;;;;;;12.75;10.75;;;;;;;4.02;79.36;98114.72;10483230;28;20041;-70
2023/03/08 10:07:33;;;;;;;37.83;34.10;;;;;;;4.06;79.38;98103.78;10472649;28;20052;-73
2023/03/08 10:13:05;;;;;;;16.58;14.70;;;;;;;4.02;79.37;98077.84;10477021;28;20103;-73
2023/03/08 10:18:29;;;;;;;19.42;17.55;;;;;;;3.98;80.05;98073.81;10449272;28;20056;-69
2023/03/08 10:23:32;;;;;;;16.88;15.15;;;;;;;4.02;79.40;98057.66;10442223;28;20041;-70
2023/03/08 10:28:33;;;;;;;22.00;19.75;;;;;;;4.01;80.09;98055.97;10424727;28;20049;-71
2023/03/08 10:33:35;;;;;;;26.77;24.13;;;;;;;4.00;80.28;98064.81;10447823;28;20092;-68
2023/03/08 10:38:38;;;;;;;38.53;34.40;;;;;;;4.07;80.35;98046.69;10427628;28;20123;-70
2023/03/08 10:43:49;;;;;;;18.25;16.40;;;;;;;4.12;79.99;98043.66;10449180;28;20048;-72
2023/03/08 10:48:51;;;;;;;18.52;16.27;;;;;;;4.16;80.14;98032.72;10453113;28;20341;-73
2023/03/08 10:53:56;;;;;;;19.90;17.00;;;;;;;4.26;80.17;98019.53;10438231;28;20086;-71
2023/03/08 10:58:58;;;;;;;13.57;12.13;;;;;;;4.29;80.20;98006.09;10452151;28;20053;-70
2023/03/08 11:04:15;;;;;;;14.73;12.63;;;;;;;4.25;80.69;98000.28;10465548;28;20067;-72
2023/03/08 11:09:27;;;;;;;13.98;12.48;;;;;;;4.23;80.55;97991.69;10488446;28;20125;-69
2023/03/08 11:14:29;;;;;;;12.70;10.77;;;;;;;4.29;80.27;97984.19;10457055;28;20044;-72
2023/03/08 11:19:56;;;;;;;14.10;12.18;;;;;;;4.25;79.85;97978.38;10449818;28;20097;-72
2023/03/08 11:25:31;;;;;;;13.32;11.93;;;;;;;4.32;80.42;97976.00;10455024;28;20448;-71
2023/03/08 11:30:58;;;;;;;12.05;10.85;;;;;;;4.31;80.87;97980.47;10482935;28;20054;-71
2023/03/08 11:36:07;;;;;;;13.82;12.40;;;;;;;4.33;81.21;97972.41;10488561;28;20084;-72
2023/03/08 11:41:20;;;;;;;13.40;11.52;;;;;;;4.46;80.95;97954.53;10483821;28;20238;-71
2023/03/08 11:46:59;;;;;;;13.38;10.57;;;;;;;4.53;81.57;97960.03;10484483;28;20066;-71
2023/03/08 11:52:19;;;;;;;14.48;11.15;;;;;;;4.58;81.65;97948.13;10486300;28;20028;-73
2023/03/08 11:57:25;;;;;;;10.55;9.02;;;;;;;4.64;81.72;97946.72;10470144;28;20044;-72
2023/03/08 12:02:33;;;;;;;9.20;8.30;;;;;;;4.65;81.87;97926.47;10502197;28;20074;-74
2023/03/08 12:07:38;;;;;;;9.38;8.48;;;;;;;4.73;82.02;97937.97;10492275;28;20064;-71
2023/03/08 12:12:45;;;;;;;9.75;8.68;;;;;;;4.82;82.27;97932.78;10445325;28;20215;-70
2023/03/08 12:17:53;;;;;;;9.32;8.40;;;;;;;4.85;81.85;97922.81;10455864;28;20040;-74
2023/03/08 12:23:04;;;;;;;9.43;8.63;;;;;;;4.87;82.59;97910.28;10438439;28;20048;-72
2023/03/08 12:28:24;;;;;;;9.00;8.18;;;;;;;4.87;82.66;97915.56;10454811;28;20040;-71
2023/03/08 12:33:27;;;;;;;10.25;8.82;;;;;;;4.94;81.95;97898.19;10409779;28;20101;-72
2023/03/08 12:38:44;;;;;;;9.00;8.10;;;;;;;4.95;82.85;97885.84;10453735;28;20090;-71
2023/03/08 12:43:46;;;;;;;11.40;9.95;;;;;;;4.98;83.51;97896.09;10458205;28;20044;-72
2023/03/08 12:48:49;;;;;;;9.73;8.82;;;;;;;5.05;83.25;97901.63;10480522;28;20055;-75
2023/03/08 12:53:50;;;;;;;9.82;8.93;;;;;;;5.04;83.93;97894.69;10485531;28;20048;-71
2023/03/08 12:58:55;;;;;;;9.07;8.18;;;;;;;5.03;84.07;97887.75;10455537;28;20078;-72
2023/03/08 13:03:57;;;;;;;9.27;8.40;;;;;;;5.16;84.11;97875.03;10453884;28;20056;-72
2023/03/08 13:09:27;;;;;;;7.88;6.97;;;;;;;5.21;83.71;97864.06;10448745;28;20056;-72
2023/03/08 13:14:37;;;;;;;8.30;7.18;;;;;;;5.25;83.87;97865.41;10443962;28;20052;-70
2023/03/08 13:19:41;;;;;;;8.05;7.20;;;;;;;5.18;83.48;97848.53;10491330;28;20100;-72
2023/03/08 13:24:52;;;;;;;6.82;5.65;;;;;;;5.22;83.93;97871.00;10448114;28;20515;-70
2023/03/08 13:30:15;;;;;;;7.38;6.53;;;;;;;5.31;84.86;97876.22;10433834;28;20049;-71
2023/03/08 13:35:17;;;;;;;5.57;5.05;;;;;;;5.29;85.04;97864.97;10453953;28;20040;-70
2023/03/08 13:40:20;;;;;;;5.60;5.10;;;;;;;5.36;84.74;97873.16;10452260;28;20072;-72
2023/03/08 13:45:23;;;;;;;6.13;5.53;;;;;;;5.38;84.61;97870.34;10454467;28;20056;-72
2023/03/08 13:50:29;;;;;;;6.75;6.22;;;;;;;5.47;84.84;97878.19;10467378;28;20481;-74
2023/03/08 13:55:38;;;;;;;7.05;6.35;;;;;;;5.52;84.32;97869.00;10472290;28;20063;-70
2023/03/08 14:00:39;;;;;;;5.75;5.30;;;;;;;5.56;84.70;97873.00;10485811;28;20315;-69
2023/03/08 14:05:42;;;;;;;6.47;5.88;;;;;;;5.56;84.73;97863.28;10467311;28;20090;-70
2023/03/08 14:10:48;;;;;;;10.32;9.32;;;;;;;5.55;85.58;97851.03;10458424;28;20049;-70
2023/03/08 14:15:58;;;;;;;14.20;10.63;;;;;;;5.62;85.40;97851.28;10448129;28;20163;-70
2023/03/08 14:21:17;;;;;;;9.38;8.52;;;;;;;5.58;85.66;97850.75;10464536;28;20052;-70
2023/03/08 14:26:28;;;;;;;24.35;20.08;;;;;;;5.68;86.07;97849.88;10424515;28;20202;-72
2023/03/08 14:31:30;;;;;;;8.60;7.80;;;;;;;5.68;86.56;97844.59;10446511;28;20036;-71
2023/03/08 14:36:35;;;;;;;9.75;8.27;;;;;;;5.66;86.14;97842.91;10450471;28;20052;-70
2023/03/08 14:41:36;;;;;;;18.65;16.23;;;;;;;5.78;86.07;97829.47;10450093;28;20040;-70
2023/03/08 14:46:38;;;;;;;12.48;11.18;;;;;;;5.80;86.20;97816.97;10464084;28;20495;-72
2023/03/08 14:51:41;;;;;;;12.80;11.40;;;;;;;5.88;85.19;97806.44;10477445;28;20048;-71
2023/03/08 14:56:44;;;;;;;12.60;11.30;;;;;;;5.94;85.12;97792.63;10441794;28;20158;-70
2023/03/08 15:01:46;;;;;;;10.30;9.30;;;;;;;5.89;85.49;97787.00;10442354;28;20059;-72
2023/03/08 15:06:49;;;;;;;13.52;11.00;;;;;;;5.91;85.90;97771.81;10425345;28;20084;-69
2023/03/08 15:11:52;;;;;;;17.38;14.43;;;;;;;5.99;84.82;97756.06;10443600;28;20060;-70
2023/03/08 15:16:54;;;;;;;15.23;13.38;;;;;;;6.01;85.13;97750.63;10449991;28;21070;-71
2023/03/08 15:21:55;;;;;;;13.40;10.45;;;;;;;6.01;85.68;97748.00;10451302;28;20048;-70
2023/03/08 15:26:57;;;;;;;11.10;9.95;;;;;;;6.07;86.04;97749.19;10445610;28;20063;-73
2023/03/08 15:31:58;;;;;;;16.70;15.00;;;;;;;6.12;84.98;97757.47;10429791;28;20051;-70
2023/03/08 15:37:00;;;;;;;15.65;14.05;;;;;;;6.21;84.15;97745.94;10432652;28;20131;-72
2023/03/08 15:42:02;;;;;;;17.80;16.00;;;;;;;6.14;84.16;97734.34;10452110;28;20052;-72
2023/03/08 15:47:03;;;;;;;14.73;13.38;;;;;;;6.11;85.09;97739.94;10421342;28;20137;-71
2023/03/08 15:52:05;;;;;;;14.88;13.32;;;;;;;6.18;85.51;97731.25;10447533;28;20045;-70
2023/03/08 15:57:08;;;;;;;15.55;13.13;;;;;;;6.25;85.22;97742.03;10452040;28;20040;-68
2023/03/08 16:02:15;;;;;;;17.38;14.38;;;;;;;6.18;84.98;97747.13;10436192;28;21586;-68
2023/03/08 16:07:18;;;;;;;15.63;13.95;;;;;;;6.25;85.06;97757.88;10444183;28;20888;-67
2023/03/08 16:12:19;;;;;;;15.52;13.93;;;;;;;6.09;85.64;97755.13;10448666;28;20507;-70
2023/03/08 16:17:21;;;;;;;14.02;12.63;;;;;;;6.12;85.32;97744.25;10452468;28;20052;-69
2023/03/08 16:22:23;;;;;;;15.30;13.30;;;;;;;6.15;85.39;97733.38;10430838;28;20087;-70
2023/03/08 16:27:29;;;;;;;15.05;13.55;;;;;;;6.15;86.35;97720.16;10452428;28;20052;-73
2023/03/08 16:32:30;;;;;;;15.88;14.38;;;;;;;6.28;85.92;97715.28;10461390;28;20307;-69
2023/03/08 16:37:32;;;;;;;15.52;13.90;;;;;;;6.28;85.90;97722.38;10456889;28;20123;-69
2023/03/08 16:42:33;;;;;;;18.05;16.15;;;;;;;6.27;85.76;97718.91;10463379;28;20087;-69
2023/03/08 16:47:35;;;;;;;14.70;13.13;;;;;;;6.29;85.81;97722.22;10458144;28;20055;-71
2023/03/08 16:52:38;;;;;;;14.88;13.38;;;;;;;6.30;85.56;97745.00;10456087;28;20231;-70
2023/03/08 16:57:39;;;;;;;16.77;14.98;;;;;;;5.98;87.44;97724.53;10465720;28;20124;-71
2023/03/08 17:02:41;;;;;;;18.73;16.73;;;;;;;6.11;87.49;97746.09;10478508;28;20110;-71
2023/03/08 17:07:45;;;;;;;18.35;16.35;;;;;;;6.15;87.63;97736.03;10472956;28;20056;-71
2023/03/08 17:12:47;;;;;;;18.23;16.25;;;;;;;6.18;86.38;97747.13;10440185;28;20076;-71
2023/03/08 17:17:48;;;;;;;17.52;15.73;;;;;;;6.10;86.68;97723.28;10449602;28;20052;-69
2023/03/08 17:22:49;;;;;;;16.90;15.15;;;;;;;6.19;86.07;97769.06;10450415;28;20499;-69
2023/03/08 17:27:51;;;;;;;16.23;14.52;;;;;;;6.08;86.58;97756.09;10458173;28;20048;-69
2023/03/08 17:32:52;;;;;;;14.68;12.77;;;;;;;6.12;87.35;97752.19;10442245;28;20060;-67
2023/03/08 17:37:53;;;;;;;15.55;13.85;;;;;;;6.20;88.86;97757.53;10434577;28;20163;-69
2023/03/08 17:42:58;;;;;;;13.63;12.40;;;;;;;6.31;90.46;97757.25;10484865;28;20064;-70
2023/03/08 17:48:01;;;;;;;12.93;11.55;;;;;;;6.40;92.81;97766.03;10439397;28;20674;-67
2023/03/08 17:53:03;;;;;;;9.15;8.20;;;;;;;6.55;95.90;97738.00;10462399;28;20044;-68
2023/03/08 17:58:04;;;;;;;8.43;6.60;;;;;;;6.73;96.62;97745.84;10455964;28;20135;-68
2023/03/08 18:03:06;;;;;;;8.40;7.53;;;;;;;6.85;95.73;97740.28;10440727;28;20068;-68
2023/03/08 18:08:07;;;;;;;8.82;8.00;;;;;;;6.97;94.98;97741.63;10453892;28;20287;-68
2023/03/08 18:13:09;;;;;;;9.60;8.70;;;;;;;7.06;94.75;97737.19;10433160;28;20172;-70
2023/03/08 18:18:11;;;;;;;9.23;7.80;;;;;;;7.21;94.89;97734.72;10456204;28;20060;-67
2023/03/08 18:23:12;;;;;;;10.10;9.15;;;;;;;7.21;96.61;97740.00;10454588;28;20432;-68
2023/03/08 18:28:14;;;;;;;9.90;8.90;;;;;;;7.28;96.08;97733.06;10458658;28;20205;-67
2023/03/08 18:33:18;;;;;;;8.70;7.90;;;;;;;7.35;94.98;97744.63;10487888;28;20064;-68
2023/03/08 18:38:19;;;;;;;10.00;9.02;;;;;;;7.39;95.26;97751.25;10455308;28;20059;-66
2023/03/08 18:43:21;;;;;;;8.65;7.78;;;;;;;7.41;95.97;97756.38;10449571;28;20056;-72
2023/03/08 18:48:23;;;;;;;14.73;13.30;;;;;;;7.44;96.73;97756.88;10470212;28;20240;-70
2023/03/08 18:53:24;;;;;;;8.00;7.20;;;;;;;7.51;97.04;97764.19;10461578;28;20063;-70
2023/03/08 18:58:27;;;;;;;11.30;9.45;;;;;;;7.53;97.79;97778.06;10462751;28;20472;-70
2023/03/08 19:03:29;;;;;;;11.13;9.00;;;;;;;7.48;98.42;97780.41;10454308;28;20166;-69
2023/03/08 19:08:31;;;;;;;10.77;9.75;;;;;;;7.41;99.77;97767.78;10451003;28;20056;-68
2023/03/08 19:13:33;;;;;;;10.77;9.77;;;;;;;7.41;100.00;97770.44;10434558;28;20052;-68
2023/03/08 19:18:34;;;;;;;9.77;8.88;;;;;;;7.48;99.67;97769.81;10452131;28;20093;-71
2023/03/08 19:23:36;;;;;;;12.25;10.95;;;;;;;7.60;98.87;97771.13;10453280;28;20052;-69
2023/03/08 19:28:37;;;;;;;11.50;10.35;;;;;;;7.70;98.00;97769.16;10439983;28;20160;-71
2023/03/08 19:33:40;;;;;;;13.18;11.70;;;;;;;7.70;97.97;97761.22;10437552;28;20135;-69
2023/03/08 19:38:42;;;;;;;13.68;12.38;;;;;;;7.70;97.05;97770.94;10440324;28;20499;-70
2023/03/08 19:43:45;;;;;;;13.95;12.60;;;;;;;7.69;96.78;97764.84;10457032;28;20708;-70
2023/03/08 19:48:47;;;;;;;13.68;12.27;;;;;;;7.66;96.92;97762.53;10454054;28;20060;-67
2023/03/08 19:53:49;;;;;;;14.73;13.23;;;;;;;7.68;96.86;97754.41;10460711;28;20491;-72
2023/03/08 19:58:54;;;;;;;14.50;13.00;;;;;;;7.62;96.74;97750.59;10449396;28;20048;-68
2023/03/08 20:03:56;;;;;;;14.25;12.80;;;;;;;7.59;96.41;97746.47;10481281;28;20090;-71
2023/03/08 20:09:00;;;;;;;14.35;12.90;;;;;;;7.61;96.01;97759.53;10479995;28;20307;-71
2023/03/08 20:14:01;;;;;;;16.10;14.50;;;;;;;7.59;96.49;97751.75;10486127;28;20335;-71
2023/03/08 20:19:03;;;;;;;14.10;12.55;;;;;;;7.60;95.89;97752.59;10493150;28;20049;-70
2023/03/08 20:24:05;;;;;;;14.70;13.25;;;;;;;7.66;95.29;97767.81;10499391;28;20052;-71
2023/03/08 20:29:07;;;;;;;14.52;12.73;;;;;;;7.68;95.39;97765.81;10465400;28;20253;-69
2023/03/08 20:34:08;;;;;;;14.85;13.20;;;;;;;7.72;95.90;97764.50;10471560;28;20044;-68
2023/03/08 20:39:10;;;;;;;14.40;13.00;;;;;;;7.77;95.28;97770.13;10481899;28;20072;-70
2023/03/08 20:44:11;;;;;;;15.00;13.40;;;;;;;7.78;95.31;97771.78;10490567;28;20049;-70
2023/03/08 20:49:15;;;;;;;16.35;14.13;;;;;;;7.79;95.78;97764.66;10470257;28;20136;-72
2023/03/08 20:54:17;;;;;;;14.90;13.38;;;;;;;7.84;95.65;97777.44;10478198;28;20260;-72
2023/03/08 20:59:22;;;;;;;15.63;13.45;;;;;;;7.88;95.50;97781.38;10490441;28;20052;-72
2023/03/08 21:04:23;;;;;;;15.70;13.90;;;;;;;7.92;95.41;97777.41;10487216;28;20059;-73
2023/03/08 21:09:24;;;;;;;17.23;15.45;;;;;;;7.93;95.55;97758.69;10484928;28;20056;-73
2023/03/08 21:14:27;;;;;;;17.08;15.32;;;;;;;7.94;96.18;97748.91;10454237;28;20057;-72
2023/03/08 21:19:29;;;;;;;18.17;15.95;;;;;;;7.94;96.04;97744.47;10452737;28;20060;-68
2023/03/08 21:24:30;;;;;;;16.00;14.30;;;;;;;7.98;95.92;97737.00;10445191;28;20064;-69
2023/03/08 21:29:31;;;;;;;16.63;14.95;;;;;;;7.94;95.93;97728.56;10449773;28;20050;-70
2023/03/08 21:34:33;;;;;;;14.38;13.00;;;;;;;7.95;95.39;97716.94;10452254;28;20056;-69
2023/03/08 21:39:34;;;;;;;19.42;16.92;;;;;;;7.98;96.22;97713.16;10478292;28;20043;-71
2023/03/08 21:44:36;;;;;;;16.50;14.77;;;;;;;7.97;96.21;97706.19;10484711;28;21059;-71
2023/03/08 21:49:37;;;;;;;16.70;15.10;;;;;;;7.92;95.79;97688.16;10485414;28;20100;-70
2023/03/08 21:54:39;;;;;;;17.98;16.17;;;;;;;7.94;95.65;97695.94;10482289;28;20056;-70
2023/03/08 21:59:40;;;;;;;16.92;15.13;;;;;;;7.92;95.40;97682.03;10480205;28;20060;-70
2023/03/08 22:04:42;;;;;;;17.60;15.75;;;;;;;7.89;95.28;97690.31;10461208;28;20773;-72
2023/03/08 22:09:43;;;;;;;20.27;18.17;;;;;;;7.88;95.82;97672.78;10466120;28;20139;-72
2023/03/08 22:14:48;;;;;;;18.33;16.30;;;;;;;7.93;95.22;97668.63;10445942;28;20064;-70
2023/03/08 22:19:50;;;;;;;17.58;15.85;;;;;;;7.99;95.77;97672.44;10444127;28;20045;-71
2023/03/08 22:24:52;;;;;;;17.52;15.82;;;;;;;7.96;95.42;97647.09;10422430;28;20098;-70
2023/03/08 22:29:53;;;;;;;17.80;15.88;;;;;;;7.97;95.41;97650.56;10443537;28;20179;-70
2023/03/08 22:34:55;;;;;;;18.23;16.33;;;;;;;8.00;95.44;97647.59;10431900;23;20395;-69
2023/03/08 22:39:57;;;;;;;18.13;16.23;;;;;;;8.01;95.58;97643.13;10389583;28;20792;-68
2023/03/08 22:44:59;;;;;;;18.20;16.40;;;;;;;7.89;96.19;97624.94;10393113;28;20426;-68
2023/03/08 22:50:00;;;;;;;17.85;15.98;;;;;;;8.09;95.89;97643.06;10406906;28;20102;-69
2023/03/08 22:55:02;;;;;;;16.52;14.93;;;;;;;8.10;95.93;97636.78;10409759;28;20049;-68
2023/03/08 23:00:13;;;;;;;16.08;14.50;;;;;;;8.11;95.50;97618.06;10411309;28;20520;-69
2023/03/08 23:05:18;;;;;;;17.52;15.73;;;;;;;8.09;95.54;97598.88;10421063;28;20075;-69
2023/03/08 23:10:20;;;;;;;17.15;15.48;;;;;;;8.08;95.37;97585.81;10416443;28;20079;-68
2023/03/08 23:15:21;;;;;;;16.50;15.00;;;;;;;8.08;95.91;97578.66;10415294;28;20048;-68
2023/03/08 23:20:23;;;;;;;16.20;14.60;;;;;;;8.12;96.26;97569.38;10420571;28;20672;-68
2023/03/08 23:25:25;;;;;;;15.82;14.35;;;;;;;8.26;97.07;97575.75;10419454;28;20072;-68
2023/03/08 23:30:26;;;;;;;14.25;12.95;;;;;;;8.27;96.58;97572.13;10434923;28;20052;-68